الصفحة الرئيسية
METAR-TAF:

METAR-TAF

مطار :

مطار ماكاران الدولي

لاس فيغاس, نيفادا, الولايات المتحدة

دائرة عرض: 36-04-44N, خط طول: 115-09-19W, ارتفاع: 663 متر

مراقبة الطقس الحالي

تاريخ ووقت الإصدار 28 دقيقة قبل الساعة 02:56UTC
ريح 7 عقدة من الشمال
درجة الحرارة 21°درجة مئوية
الرطوبة 46%
ضغط 1014 hPa
الرؤية: 16.1 كم
غيوم قليلة على ارتفاع 8000 قدم
غيوم قليلة على ارتفاع 11000 قدم

METAR: KLAS 230256Z 01007KT 10SM FEW080 FEW110 21/09 A2993 RMK AO2 SLP119 T02110089 51010

زمن: 20:24 (03:24 UTC)

توقعات

تاريخ ووقت الإصدار 34 دقيقة قبل الساعة 02:50UTC
التوقعات صالحة من23 الساعة 03 UTC إلى 24 الساعة 06 UTC
ريح 6 عقدةمن اتجاهات متغيرة
الرؤية: 10 كم
سماء صافية
من 23 الساعة 1800 UTC
ريح 6 عقدة من الشرق/الشمال الشرقي
الرؤية: 10 كم
غيوم قليلة على ارتفاع 11000 قدم
من 24 الساعة 0200 UTC
ريح 6 عقدة من الجنوب/الجنوب الغربي
الرؤية: 10 كم
سماء صافية

TAF: KLAS 230250Z 2303/2406 VRB06KT P6SM SKC FM231800 06006KT P6SM FEW110 FM240200 21006KT P6SM SKC

أرصاد الطقس والتوقعات من أكثر من 4000 مطار (تقارير الطقس للمطار METAR والتنبؤ بالطقس بالمطارTAF).

المحطات المتاحة هي النقط الصفراء والحمراء على الخريطة.

حرك المؤشر فوق النقطة لمعرفة اسم المحطة.

ثم انقر لمعرفة أرصاد وتوقعات الطقس.

لتغيير الخارطة: اضغط على الأزرار الخضراء مع رمز الصليب الأسود للتكبير. على الزر الأخضر مع شرطة للتصغير، أو على الأسهم الخضراء للخرائط المجاورة.


METAR-TAF: